Time;durP1;ratioP1;P1;durP2;ratioP2;P2;SDS_P1;SDS_P2;PMS_P1;PMS_P2;Temp;Humidity;BMP_temperature;BMP_pressure;BME280_temperature;BME280_humidity;BME280_pressure;Samples;Min_cycle;Max_cycle;Signal;HPM_P1;HPM_P2
2023/04/01 00:01:21;;;;;;;26.70;19.40;;;;;;;6.94;100.00;98443.79;105860;1257;74111;-74
2023/04/01 00:03:50;;;;;;;29.70;22.30;;;;;;;6.94;100.00;98443.23;105861;1256;69073;-74
2023/04/01 00:06:18;;;;;;;25.20;20.70;;;;;;;6.94;100.00;98445.58;105730;1255;72888;-74
2023/04/01 00:08:47;;;;;;;24.80;20.50;;;;;;;7.02;100.00;98444.45;105752;1256;60868;-73
2023/04/01 00:11:15;;;;;;;26.30;21.60;;;;;;;7.05;100.00;98443.36;105845;1258;61576;-70
2023/04/01 00:13:44;;;;;;;27.60;20.10;;;;;;;7.00;100.00;98453.64;105875;1257;75207;-72
2023/04/01 00:16:12;;;;;;;25.60;20.20;;;;;;;7.02;100.00;98455.10;105845;1253;71325;-74
2023/04/01 00:18:51;;;;;;;21.60;19.10;;;;;;;7.08;100.00;98451.80;105962;1256;72955;-73
2023/04/01 00:21:20;;;;;;;23.50;19.10;;;;;;;7.08;100.00;98448.50;106278;1258;60450;-72
2023/04/01 00:23:50;;;;;;;23.30;18.90;;;;;;;7.06;100.00;98448.67;105769;1258;60403;-73
2023/04/01 00:26:20;;;;;;;25.80;19.50;;;;;;;7.12;100.00;98447.29;105919;1253;72957;-72
2023/04/01 00:28:49;;;;;;;26.10;21.60;;;;;;;7.14;100.00;98453.38;105749;1253;71545;-72
2023/04/01 00:31:17;;;;;;;24.50;19.90;;;;;;;7.13;100.00;98448.13;106041;1253;71494;-73
2023/04/01 00:33:46;;;;;;;24.10;19.40;;;;;;;7.18;100.00;98445.22;105743;1253;60822;-74
2023/04/01 00:36:17;;;;;;;24.80;21.30;;;;;;;7.20;100.00;98445.20;105633;1253;61322;-74
2023/04/01 00:38:47;;;;;;;27.60;20.50;;;;;;;7.16;100.00;98439.95;105907;1253;74724;-76
2023/04/01 00:41:15;;;;;;;23.00;19.00;;;;;;;7.20;100.00;98435.83;106053;1252;70626;-73
2023/04/01 00:43:46;;;;;;;27.20;23.10;;;;;;;7.24;100.00;98434.99;106021;1253;73876;-73
2023/04/01 00:46:14;;;;;;;23.80;20.80;;;;;;;7.21;100.00;98432.14;105674;1257;63445;-75
2023/04/01 00:48:47;;;;;;;22.90;19.80;;;;;;;7.25;100.00;98433.30;105722;1253;60521;-72
2023/04/01 00:51:23;;;;;;;26.40;22.20;;;;;;;7.25;100.00;98430.91;105677;1260;74216;-71
2023/04/01 00:53:54;;;;;;;24.00;20.10;;;;;;;7.24;100.00;98433.08;105407;1261;69132;-71
2023/04/01 00:56:40;;;;;;;26.70;21.50;;;;;;;7.30;100.00;98427.73;105365;1256;72603;-73
2023/04/01 00:59:14;;;;;;;28.00;21.40;;;;;;;7.34;99.95;98428.55;105846;1253;61475;-71
2023/04/01 01:01:42;;;;;;;24.40;18.90;;;;;;;7.31;99.96;98427.46;105747;1252;61558;-74
2023/04/01 01:04:25;;;;;;;23.90;19.70;;;;;;;7.37;99.59;98425.04;105905;1253;73028;-75
2023/04/01 01:07:16;;;;;;;30.20;23.80;;;;;;;7.39;99.54;98424.49;105932;1253;71295;-76
2023/04/01 01:10:02;;;;;;;27.00;22.10;;;;;;;7.33;99.54;98425.30;105626;1261;70551;-75
2023/04/01 01:12:46;;;;;;;25.10;21.70;;;;;;;7.37;99.23;98424.99;105912;1253;63178;-72
2023/04/01 01:15:15;;;;;;;29.70;23.80;;;;;;;7.36;99.37;98422.66;105769;1253;60530;-73
2023/04/01 01:17:47;;;;;;;27.50;20.70;;;;;;;7.30;99.34;98426.71;105987;1253;75067;-73
2023/04/01 01:20:24;;;;;;;26.80;20.10;;;;;;;7.34;99.37;98428.39;105876;1255;70349;-71
2023/04/01 01:23:06;;;;;;;28.10;22.70;;;;;;;7.37;99.09;98433.98;105884;1258;72885;-74
2023/04/01 01:25:44;;;;;;;27.30;21.90;;;;;;;7.32;99.31;98426.70;105938;1253;60457;-73
2023/04/01 01:28:44;;;;;;;32.60;24.70;;;;;;;7.32;99.21;98427.71;105826;1258;60540;-70
2023/04/01 01:31:24;;;;;;;28.70;24.50;;;;;;;7.35;99.27;98429.11;105651;1253;74643;-71
2023/04/01 01:34:32;;;;;;;30.40;24.50;;;;;;;7.28;99.54;98431.67;105621;1253;71208;-71
2023/04/01 01:37:03;;;;;;;26.60;21.70;;;;;;;7.27;99.62;98436.71;105562;1253;72684;-72
2023/04/01 01:39:32;;;;;;;30.70;23.20;;;;;;;7.33;99.65;98443.17;105699;1253;63240;-74
2023/04/01 01:42:04;;;;;;;35.90;24.10;;;;;;;7.33;99.45;98439.40;105839;1253;60519;-73
2023/04/01 01:44:32;;;;;;;29.70;23.60;;;;;;;7.31;99.71;98439.16;105726;1253;73923;-73
2023/04/01 01:47:00;;;;;;;26.60;21.90;;;;;;;7.29;99.70;98441.77;105670;1253;69332;-73
2023/04/01 01:49:30;;;;;;;28.70;23.60;;;;;;;7.36;99.45;98445.83;105695;1255;73694;-73
2023/04/01 01:51:58;;;;;;;31.50;24.70;;;;;;;7.38;99.07;98446.23;105530;1253;60515;-71
2023/04/01 01:54:26;;;;;;;28.80;24.80;;;;;;;7.32;99.37;98452.59;105619;1253;61416;-74
2023/04/01 01:57:01;;;;;;;32.30;25.30;;;;;;;7.34;99.27;98464.89;105800;1253;73245;-71
2023/04/01 01:59:29;;;;;;;33.90;24.60;;;;;;;7.35;99.31;98463.48;105921;1258;71391;-74
2023/04/01 02:01:58;;;;;;;26.60;22.60;;;;;;;7.30;99.43;98463.36;105715;1254;72665;-72
2023/04/01 02:04:26;;;;;;;31.20;25.50;;;;;;;7.33;99.38;98461.04;105743;1256;62359;-71
2023/04/01 02:07:18;;;;;;;35.40;27.70;;;;;;;7.32;99.14;98465.44;105647;1252;60944;-75
2023/04/01 02:09:47;;;;;;;34.40;25.00;;;;;;;7.28;99.44;98464.43;105977;1256;73633;-74
2023/04/01 02:12:16;;;;;;;31.00;24.20;;;;;;;7.31;99.32;98460.98;105725;1261;69669;-73
2023/04/01 02:15:05;;;;;;;29.20;24.30;;;;;;;7.32;99.25;98461.11;105644;1254;72734;-74
2023/04/01 02:17:33;;;;;;;29.70;23.80;;;;;;;7.29;99.21;98456.40;105862;1253;62917;-76
2023/04/01 02:20:29;;;;;;;29.20;25.10;;;;;;;7.25;99.23;98458.29;105863;1257;61272;-73
2023/04/01 02:22:59;;;;;;;31.80;23.60;;;;;;;7.19;99.27;98452.66;105731;1259;73084;-72
2023/04/01 02:25:33;;;;;;;28.50;22.10;;;;;;;7.22;99.33;98455.48;105726;1255;69751;-74
2023/04/01 02:28:06;;;;;;;32.20;24.90;;;;;;;7.22;99.33;98458.69;105857;1254;71190;-71
2023/04/01 02:30:36;;;;;;;29.90;22.10;;;;;;;7.17;99.64;98459.78;105817;1260;60408;-72
2023/04/01 02:33:05;;;;;;;31.10;22.40;;;;;;;7.19;99.71;98457.66;105899;1255;60530;-72
2023/04/01 02:35:35;;;;;;;26.10;22.10;;;;;;;7.23;99.28;98456.23;105779;1258;75318;-74
2023/04/01 02:38:04;;;;;;;27.80;22.20;;;;;;;7.24;99.39;98455.64;105894;1256;70077;-72
2023/04/01 02:40:50;;;;;;;30.20;22.80;;;;;;;7.18;99.48;98452.27;105483;1253;200762;-73
2023/04/01 02:44:32;;;;;;;28.60;23.80;;;;;;;7.28;99.23;98447.14;102865;1293;600239;-72
2023/04/01 02:47:00;;;;;;;30.00;24.10;;;;;;;7.25;99.17;98449.84;105122;1267;60282;-73
2023/04/01 02:49:29;;;;;;;27.30;21.30;;;;;;;7.22;99.17;98449.35;105175;1267;61352;-72
2023/04/01 02:51:58;;;;;;;28.00;21.70;;;;;;;7.26;99.03;98448.95;105051;1267;73222;-76
2023/04/01 02:54:26;;;;;;;28.80;22.00;;;;;;;7.29;98.68;98446.86;105131;1267;71561;-73
2023/04/01 02:56:54;;;;;;;28.50;22.00;;;;;;;7.25;99.00;98447.40;105048;1271;70668;-73
2023/04/01 02:59:23;;;;;;;25.60;20.60;;;;;;;7.25;98.74;98447.23;105135;1264;183992;-72
2023/04/01 03:01:51;;;;;;;25.30;21.20;;;;;;;7.33;98.62;98452.35;105228;1264;59397;-73
2023/04/01 03:04:20;;;;;;;25.20;21.60;;;;;;;7.29;98.51;98444.95;105262;1263;73126;-74
2023/04/01 03:06:49;;;;;;;30.50;24.70;;;;;;;7.23;98.79;98448.50;105995;1254;71235;-72
2023/04/01 03:09:18;;;;;;;28.70;22.00;;;;;;;7.20;98.98;98448.42;105958;1254;71978;-72
2023/04/01 03:11:46;;;;;;;29.10;21.90;;;;;;;7.22;98.77;98447.92;105944;1252;61440;-70
2023/04/01 03:14:16;;;;;;;29.20;22.40;;;;;;;7.21;98.77;98444.90;105968;1254;59905;-73
2023/04/01 03:16:45;;;;;;;28.20;22.60;;;;;;;7.18;98.89;98442.73;106057;1256;73194;-72
2023/04/01 03:19:13;;;;;;;26.20;22.50;;;;;;;7.14;99.13;98440.91;105949;1254;71245;-73
2023/04/01 03:21:42;;;;;;;23.90;21.00;;;;;;;7.08;99.50;98445.46;105762;1255;73110;-72
2023/04/01 03:24:10;;;;;;;25.60;20.80;;;;;;;7.09;99.74;98444.86;105908;1254;61241;-72
2023/04/01 03:26:42;;;;;;;25.10;20.40;;;;;;;7.14;99.11;98446.89;105919;1253;59605;-71
2023/04/01 03:29:11;;;;;;;26.20;22.00;;;;;;;7.13;98.98;98446.54;106050;1256;74104;-72
2023/04/01 03:31:39;;;;;;;27.90;19.90;;;;;;;7.05;99.16;98444.88;105946;1254;71633;-73
2023/04/01 03:34:07;;;;;;;22.70;19.20;;;;;;;7.06;98.97;98449.20;105995;1253;72686;-72
2023/04/01 03:36:35;;;;;;;28.20;21.50;;;;;;;7.11;98.93;98455.52;105792;1255;61307;-72
2023/04/01 03:39:11;;;;;;;29.20;22.70;;;;;;;7.10;99.29;98454.11;105969;1253;60001;-70
2023/04/01 03:41:41;;;;;;;24.80;19.90;;;;;;;7.06;99.07;98457.62;105989;1256;74063;-71
2023/04/01 03:44:09;;;;;;;25.90;21.60;;;;;;;7.08;98.87;98457.08;105558;1257;71070;-70
2023/04/01 03:46:38;;;;;;;28.80;21.80;;;;;;;7.07;99.18;98464.61;105515;1254;74164;-72
2023/04/01 03:49:11;;;;;;;24.70;20.90;;;;;;;7.01;99.40;98466.38;105653;1254;61136;-70
2023/04/01 03:51:43;;;;;;;26.00;21.70;;;;;;;7.02;99.30;98468.67;105741;1257;61535;-72
2023/04/01 03:54:12;;;;;;;27.30;20.90;;;;;;;7.00;99.15;98469.66;105804;1257;73286;-70
2023/04/01 03:56:41;;;;;;;24.10;19.60;;;;;;;7.02;99.34;98476.06;105995;1254;69686;-72
2023/04/01 03:59:11;;;;;;;26.20;21.40;;;;;;;7.00;99.62;98473.21;105971;1254;72871;-74
2023/04/01 04:01:39;;;;;;;26.50;20.40;;;;;;;6.94;99.72;98476.09;105966;1254;60928;-71
2023/04/01 04:04:12;;;;;;;25.00;20.00;;;;;;;6.97;99.75;98482.27;105845;1254;60096;-71
2023/04/01 04:06:40;;;;;;;27.20;21.10;;;;;;;6.96;99.57;98477.90;106034;1254;70912;-74
2023/04/01 04:09:09;;;;;;;23.80;19.60;;;;;;;6.91;99.56;98473.48;105722;1259;69376;-71
2023/04/01 04:11:42;;;;;;;23.20;20.70;;;;;;;6.96;99.71;98481.55;105745;1254;70815;-74
2023/04/01 04:14:12;;;;;;;27.40;22.00;;;;;;;6.96;99.80;98487.69;105587;1253;61392;-73
2023/04/01 04:16:41;;;;;;;29.50;20.70;;;;;;;6.92;99.89;98492.29;105896;1258;59751;-71
2023/04/01 04:19:10;;;;;;;28.70;20.70;;;;;;;6.96;99.83;98494.60;105811;1254;71917;-72
2023/04/01 04:21:40;;;;;;;27.70;21.70;;;;;;;7.01;99.60;98502.69;105916;1254;69530;-72
2023/04/01 04:24:08;;;;;;;27.70;21.70;;;;;;;6.98;99.76;98500.69;105875;1254;71697;-71
2023/04/01 04:26:58;;;;;;;24.00;21.20;;;;;;;6.99;99.79;98508.70;105816;1254;63212;-71
2023/04/01 04:29:26;;;;;;;26.40;21.50;;;;;;;7.01;99.72;98505.08;105712;1256;59609;-70
2023/04/01 04:31:58;;;;;;;27.80;20.80;;;;;;;6.99;99.75;98499.73;105721;1256;73263;-71
2023/04/01 04:34:28;;;;;;;25.60;20.00;;;;;;;6.96;99.83;98486.28;105804;1254;69126;-71
2023/04/01 04:36:56;;;;;;;24.90;21.60;;;;;;;7.04;99.76;98484.52;105658;1254;73589;-71
2023/04/01 04:39:26;;;;;;;26.90;23.10;;;;;;;7.06;99.62;98485.98;105705;1253;59621;-72
2023/04/01 04:41:54;;;;;;;27.50;21.30;;;;;;;7.02;99.84;98491.25;105797;1254;59721;-71
2023/04/01 04:44:22;;;;;;;23.00;19.40;;;;;;;7.04;99.69;98490.81;105863;1258;71804;-71
2023/04/01 04:46:51;;;;;;;24.00;19.40;;;;;;;7.15;99.18;98487.06;105741;1259;70572;-73
2023/04/01 04:49:20;;;;;;;23.80;19.30;;;;;;;7.18;98.86;98493.77;105471;1255;73876;-73
2023/04/01 04:51:48;;;;;;;27.30;19.70;;;;;;;7.14;98.77;98486.67;105817;1254;62721;-72
2023/04/01 04:54:16;;;;;;;22.70;18.60;;;;;;;7.18;98.62;98483.24;105725;1253;60275;-71
2023/04/01 04:56:53;;;;;;;26.80;21.80;;;;;;;7.21;98.68;98492.70;105963;1256;72072;-73
2023/04/01 04:59:22;;;;;;;22.30;18.10;;;;;;;7.17;98.73;98485.84;105602;1254;70535;-74
2023/04/01 05:02:04;;;;;;;22.90;18.30;;;;;;;7.18;98.63;98486.20;105758;1258;72671;-72
2023/04/01 05:04:36;;;;;;;22.70;18.60;;;;;;;7.27;98.39;98483.61;105666;1254;62720;-73
2023/04/01 05:07:05;;;;;;;24.90;20.20;;;;;;;7.33;98.28;98487.68;105870;1254;59755;-73
2023/04/01 05:09:39;;;;;;;25.40;18.50;;;;;;;7.33;97.95;98494.02;105908;1254;74223;-72
2023/04/01 05:12:07;;;;;;;23.20;18.40;;;;;;;7.40;97.71;98486.51;105746;1258;69981;-73
2023/04/01 05:14:56;;;;;;;23.80;18.80;;;;;;;7.45;97.42;98486.79;105713;1255;72883;-72
2023/04/01 05:17:27;;;;;;;21.70;17.50;;;;;;;7.42;97.33;98482.77;105901;1254;60191;-72
2023/04/01 05:19:57;;;;;;;23.00;18.10;;;;;;;7.44;97.13;98478.61;105643;1254;61151;-73
2023/04/01 05:22:28;;;;;;;21.80;18.00;;;;;;;7.55;96.88;98477.55;105521;1253;73824;-74
2023/04/01 05:24:56;;;;;;;21.60;18.40;;;;;;;7.57;96.51;98490.16;105644;1254;71342;-74
2023/04/01 05:27:25;;;;;;;23.00;18.80;;;;;;;7.54;96.26;98491.10;105931;1254;72947;-72
2023/04/01 05:29:53;;;;;;;23.20;17.70;;;;;;;7.55;96.32;98492.95;105913;1254;61390;-74
2023/04/01 05:32:40;;;;;;;23.10;18.70;;;;;;;7.65;95.90;98490.08;105870;1254;59698;-73
2023/04/01 05:35:09;;;;;;;23.30;19.30;;;;;;;7.68;96.05;98487.10;105862;1259;73180;-74
2023/04/01 05:37:37;;;;;;;23.80;19.30;;;;;;;7.71;96.04;98484.27;105925;1253;68922;-74
2023/04/01 05:40:06;;;;;;;22.50;17.90;;;;;;;7.82;95.76;98484.82;105650;1260;71979;-72
2023/04/01 05:42:35;;;;;;;22.50;18.20;;;;;;;7.87;95.51;98488.08;105984;1254;59642;-72
2023/04/01 05:45:06;;;;;;;25.00;18.60;;;;;;;7.86;95.47;98490.66;105982;1254;59480;-72
2023/04/01 05:48:07;;;;;;;22.10;16.30;;;;;;;7.93;94.36;98496.50;105910;1253;72445;-73
2023/04/01 05:50:40;;;;;;;20.10;16.60;;;;;;;7.99;94.01;98502.89;105935;1254;69601;-74
2023/04/01 05:53:09;;;;;;;21.20;17.10;;;;;;;7.92;93.48;98508.68;105852;1259;72155;-73
2023/04/01 05:55:38;;;;;;;22.10;15.50;;;;;;;7.85;93.22;98517.36;105839;1259;61511;-75
2023/04/01 05:58:07;;;;;;;18.30;15.70;;;;;;;7.83;93.10;98513.98;105614;1254;59804;-72
2023/04/01 06:00:35;;;;;;;18.80;15.20;;;;;;;7.79;93.25;98508.41;105959;1254;72331;-72
2023/04/01 06:03:23;;;;;;;20.90;17.00;;;;;;;7.72;93.57;98511.92;105800;1256;71653;-70
2023/04/01 06:05:52;;;;;;;18.20;14.40;;;;;;;7.68;94.00;98510.08;105833;1256;73098;-74
2023/04/01 06:08:25;;;;;;;20.00;16.60;;;;;;;7.77;93.80;98507.65;105762;1254;62240;-72
2023/04/01 06:11:13;;;;;;;20.80;17.40;;;;;;;7.81;93.62;98509.70;105964;1253;60598;-71
2023/04/01 06:14:00;;;;;;;21.30;16.30;;;;;;;7.81;93.80;98516.98;105870;1254;72061;-73
2023/04/01 06:17:00;;;;;;;20.50;16.30;;;;;;;7.82;93.56;98523.59;105790;1254;70576;-73
2023/04/01 06:20:00;;;;;;;21.70;18.20;;;;;;;7.89;93.46;98525.23;105890;1258;71766;-73
2023/04/01 06:22:35;;;;;;;22.60;17.80;;;;;;;7.85;93.52;98521.47;105925;1260;61324;-72
2023/04/01 06:25:19;;;;;;;23.30;17.90;;;;;;;7.78;93.98;98518.69;105868;1259;60841;-71
2023/04/01 06:27:51;;;;;;;;;;;;;;;7.85;94.21;98507.89;106143;1257;71931;-71
2023/04/01 06:30:57;;;;;;;22.10;17.80;;;;;;;7.89;94.01;98504.39;105885;1254;69114;-72
2023/04/01 06:33:42;;;;;;;23.60;17.00;;;;;;;7.86;94.10;98498.73;105876;1254;71729;-71
2023/04/01 06:36:36;;;;;;;20.40;16.70;;;;;;;7.89;93.77;98490.11;105804;1254;61787;-72
2023/04/01 06:39:44;;;;;;;26.90;18.50;;;;;;;7.99;93.41;98494.89;105900;1254;61535;-73
2023/04/01 06:42:30;;;;;;;24.00;18.80;;;;;;;7.97;93.55;98494.24;105860;1254;72892;-75
2023/04/01 06:45:44;;;;;;;21.50;16.00;;;;;;;7.99;93.63;98494.55;105561;1254;70768;-74
2023/04/01 06:49:11;;;;;;;22.80;17.70;;;;;;;8.11;92.56;98497.20;105843;1254;72153;-72
2023/04/01 06:52:00;;;;;;;22.70;16.20;;;;;;;8.09;92.23;98496.19;105974;1256;60721;-71
2023/04/01 06:54:53;;;;;;;20.40;16.20;;;;;;;8.12;92.71;98497.42;105896;1254;59592;-75
2023/04/01 06:57:45;;;;;;;25.10;17.10;;;;;;;8.31;92.63;98494.62;105877;1254;74256;-72
2023/04/01 07:00:16;;;;;;;22.10;17.50;;;;;;;8.51;93.11;98498.51;105665;1254;71386;-74
2023/04/01 07:02:55;;;;;;;21.40;15.80;;;;;;;8.75;91.55;98506.94;105819;1253;73003;-70
2023/04/01 07:05:23;;;;;;;20.00;15.50;;;;;;;8.98;90.55;98504.75;105826;1254;62284;-71
2023/04/01 07:07:55;;;;;;;21.40;15.20;;;;;;;9.21;90.34;98502.69;105681;1253;60408;-74
2023/04/01 07:10:56;;;;;;;21.70;18.10;;;;;;;9.37;89.25;98506.58;106224;1254;74172;-71
2023/04/01 07:13:55;;;;;;;20.90;16.60;;;;;;;9.51;88.43;98505.60;106450;1254;71538;-73
2023/04/01 07:16:25;;;;;;;21.60;18.20;;;;;;;9.73;86.56;98514.06;106345;1254;72497;-71
2023/04/01 07:19:19;;;;;;;20.80;16.70;;;;;;;9.79;86.48;98507.48;106015;1254;60453;-72
2023/04/01 07:22:31;;;;;;;18.80;15.40;;;;;;;9.85;86.09;98508.14;105911;1254;60513;-71
2023/04/01 07:25:15;;;;;;;21.40;15.80;;;;;;;10.06;86.38;98507.92;106078;1256;73973;-70
2023/04/01 07:27:45;;;;;;;21.80;16.70;;;;;;;10.16;84.88;98507.77;105937;1254;71725;-70
2023/04/01 07:30:21;;;;;;;21.90;17.40;;;;;;;10.15;83.84;98510.58;105722;1254;72954;-71
2023/04/01 07:33:01;;;;;;;18.60;15.00;;;;;;;10.11;83.45;98506.18;105708;1254;62029;-74
2023/04/01 07:35:43;;;;;;;17.60;14.50;;;;;;;10.15;83.67;98507.56;105920;1259;60423;-73
2023/04/01 07:38:28;;;;;;;24.00;14.90;;;;;;;10.17;83.47;98510.91;105640;1262;73376;-72
2023/04/01 07:41:03;;;;;;;17.10;14.20;;;;;;;10.13;83.42;98511.88;105782;1254;70685;-70
2023/04/01 07:43:47;;;;;;;17.60;14.10;;;;;;;10.10;82.94;98508.59;105659;1254;73402;-70
2023/04/01 07:46:54;;;;;;;19.30;14.10;;;;;;;10.14;83.06;98504.48;105873;1256;60860;-72
2023/04/01 07:49:53;;;;;;;18.10;15.00;;;;;;;10.10;82.81;98511.16;105971;1253;60607;-71
2023/04/01 07:52:48;;;;;;;18.30;14.90;;;;;;;10.06;82.73;98512.04;106038;1259;74456;-71
2023/04/01 07:55:25;;;;;;;16.30;13.60;;;;;;;10.10;83.35;98509.20;105909;1254;69505;-72
2023/04/01 07:58:00;;;;;;;19.20;15.40;;;;;;;10.25;83.08;98510.84;105921;1254;73374;-74
2023/04/01 08:00:36;;;;;;;18.30;14.50;;;;;;;10.35;83.08;98512.98;105856;1259;60507;-70
2023/04/01 08:03:52;;;;;;;16.00;14.00;;;;;;;10.43;82.90;98517.66;105942;1255;60518;-71
2023/04/01 08:06:33;;;;;;;17.20;14.40;;;;;;;10.59;82.65;98523.82;105835;1259;71980;-74
2023/04/01 08:09:28;;;;;;;20.60;15.60;;;;;;;10.81;82.39;98522.23;105987;1254;71295;-70
2023/04/01 08:12:31;;;;;;;17.50;15.20;;;;;;;10.92;80.65;98527.73;106143;1252;73203;-73
2023/04/01 08:15:21;;;;;;;18.30;15.40;;;;;;;10.90;79.84;98538.27;106002;1254;60493;-72
2023/04/01 08:18:28;;;;;;;18.00;15.00;;;;;;;10.86;80.02;98531.33;106057;1254;60810;-73
2023/04/01 08:21:02;;;;;;;18.50;14.70;;;;;;;10.85;79.93;98530.51;106042;1253;74324;-71
2023/04/01 08:23:36;;;;;;;;;;;;;;;10.90;79.90;98535.28;106002;1260;71628;-72
2023/04/01 08:26:35;;;;;;;19.20;15.50;;;;;;;10.86;79.73;98539.54;105846;1259;72613;-71
2023/04/01 08:29:13;;;;;;;18.10;15.10;;;;;;;10.74;79.86;98540.84;106045;1254;60425;-73
2023/04/01 08:31:55;;;;;;;19.00;15.40;;;;;;;10.67;80.31;98549.95;106181;1254;61463;-71
2023/04/01 08:34:28;;;;;;;20.70;16.40;;;;;;;10.70;80.14;98554.76;106027;1255;74777;-73
2023/04/01 08:37:05;;;;;;;23.70;16.90;;;;;;;10.63;80.46;98558.81;106056;1256;70303;-73
2023/04/01 08:39:43;;;;;;;22.00;17.50;;;;;;;10.56;80.60;98554.56;105954;1255;73521;-74
2023/04/01 08:42:41;;;;;;;26.40;17.60;;;;;;;10.53;80.82;98558.48;106170;1254;62094;-71
2023/04/01 08:45:48;;;;;;;23.50;17.70;;;;;;;10.67;80.89;98555.67;105973;1256;60425;-72
2023/04/01 08:48:56;;;;;;;30.70;21.10;;;;;;;10.76;80.86;98561.32;105746;1256;74786;-71
2023/04/01 08:51:45;;;;;;;31.10;22.00;;;;;;;10.83;80.51;98555.05;105975;1256;70177;-74
2023/04/01 08:54:16;;;;;;;35.20;22.00;;;;;;;10.90;80.65;98551.56;105759;1254;71652;-72
2023/04/01 08:57:08;;;;;;;36.40;22.90;;;;;;;11.11;80.20;98558.41;106121;1256;60533;-73
2023/04/01 08:59:58;;;;;;;32.90;24.30;;;;;;;11.30;79.27;98553.67;105876;1254;61125;-69
2023/04/01 09:02:50;;;;;;;41.20;26.60;;;;;;;11.40;79.91;98548.89;105900;1256;74094;-71
2023/04/01 09:06:04;;;;;;;38.70;24.10;;;;;;;11.56;78.92;98555.51;105913;1254;70011;-73
2023/04/01 09:08:48;;;;;;;36.50;25.30;;;;;;;11.83;77.71;98546.97;105848;1253;71705;-70
2023/04/01 09:11:24;;;;;;;37.60;23.90;;;;;;;11.94;76.83;98540.36;105835;1254;60467;-72
2023/04/01 09:14:30;;;;;;;36.90;25.50;;;;;;;12.10;77.39;98530.30;105975;1256;60440;-73
2023/04/01 09:17:48;;;;;;;35.80;24.90;;;;;;;12.46;75.73;98540.73;105845;1254;74356;-71
2023/04/01 09:20:50;;;;;;;34.00;23.30;;;;;;;12.87;74.79;98537.52;105819;1254;70100;-72
2023/04/01 09:23:40;;;;;;;39.30;24.40;;;;;;;13.47;72.84;98531.52;105919;1254;72685;-73
2023/04/01 09:26:23;;;;;;;36.40;25.40;;;;;;;13.88;72.57;98527.51;105932;1254;61556;-73
2023/04/01 09:29:26;;;;;;;33.90;22.80;;;;;;;14.17;70.23;98536.02;106011;1253;60520;-71
2023/04/01 09:32:00;;;;;;;29.90;22.50;;;;;;;14.31;68.81;98531.48;105972;1256;73350;-74
2023/04/01 09:34:41;;;;;;;;;;;;;;;14.34;67.79;98521.84;105918;1259;69787;-73
2023/04/01 09:37:17;;;;;;;33.30;24.50;;;;;;;14.37;68.16;98529.65;106082;1256;71731;-73
2023/04/01 09:40:20;;;;;;;33.20;23.10;;;;;;;14.49;68.57;98520.24;105908;1254;60512;-73
2023/04/01 09:43:05;;;;;;;28.10;21.40;;;;;;;14.89;67.81;98530.80;105995;1257;60568;-72
2023/04/01 09:45:55;;;;;;;29.10;21.30;;;;;;;15.19;65.73;98522.48;106098;1254;74216;-70
2023/04/01 09:48:45;;;;;;;30.10;22.40;;;;;;;15.31;64.87;98517.79;106120;1254;70865;-73
2023/04/01 09:51:46;;;;;;;31.10;23.50;;;;;;;15.43;64.79;98523.79;105865;1259;73519;-72
2023/04/01 09:54:36;;;;;;;28.80;22.20;;;;;;;15.77;65.54;98520.10;105778;1254;60562;-74
2023/04/01 09:57:32;;;;;;;27.80;21.90;;;;;;;16.36;62.97;98531.08;106062;1253;60405;-72
2023/04/01 10:01:02;;;;;;;27.10;22.20;;;;;;;16.89;61.16;98521.23;106157;1255;72752;-73
2023/04/01 10:03:51;;;;;;;26.20;21.20;;;;;;;17.36;60.63;98523.45;106460;1256;70831;-72
2023/04/01 10:06:39;;;;;;;20.60;17.90;;;;;;;17.60;57.42;98543.94;106462;1252;73014;-72
2023/04/01 10:09:34;;;;;;;22.10;17.90;;;;;;;17.41;58.00;98527.35;105943;1254;61623;-70
2023/04/01 10:12:27;;;;;;;21.10;18.40;;;;;;;17.38;58.17;98520.41;106067;1256;60543;-73
2023/04/01 10:15:18;;;;;;;21.70;18.70;;;;;;;17.55;58.22;98517.91;105990;1254;74038;-72
2023/04/01 10:18:18;;;;;;;19.80;16.40;;;;;;;17.77;57.92;98508.00;105982;1257;71439;-74
2023/04/01 10:20:52;;;;;;;19.00;16.70;;;;;;;17.97;56.73;98500.38;106034;1256;71518;-72
2023/04/01 10:23:45;;;;;;;19.20;16.60;;;;;;;17.96;56.30;98500.21;106072;1254;61382;-71
2023/04/01 10:26:53;;;;;;;17.70;15.20;;;;;;;17.93;56.43;98502.80;105943;1252;60480;-71
2023/04/01 10:30:20;;;;;;;17.20;15.20;;;;;;;18.01;55.42;98500.55;106313;1254;74829;-73
2023/04/01 10:33:15;;;;;;;14.90;13.60;;;;;;;17.98;55.92;98494.92;106342;1259;69165;-73
2023/04/01 10:36:01;;;;;;;15.10;13.60;;;;;;;18.18;55.82;98488.73;106730;1255;73630;-72
2023/04/01 10:38:51;;;;;;;12.80;11.00;;;;;;;18.45;54.71;98485.28;106777;1253;60526;-70
2023/04/01 10:41:40;;;;;;;12.00;10.70;;;;;;;18.64;53.60;98483.19;106807;1253;60466;-70
2023/04/01 10:44:47;;;;;;;11.10;10.00;;;;;;;18.78;53.49;98473.66;106518;1255;71928;-73
2023/04/01 10:47:46;;;;;;;13.30;11.80;;;;;;;19.11;53.74;98475.98;106647;1256;69417;-71
2023/04/01 10:50:16;;;;;;;11.50;10.40;;;;;;;19.35;53.34;98478.38;106387;1254;72893;-71
2023/04/01 10:53:28;;;;;;;12.50;10.60;;;;;;;19.50;52.77;98483.58;106652;1251;61373;-72
2023/04/01 10:56:32;;;;;;;11.40;9.20;;;;;;;19.46;51.79;98480.80;106256;1254;61033;-73
2023/04/01 10:59:56;;;;;;;8.40;7.70;;;;;;;19.15;51.03;98484.67;106541;1256;73417;-71
2023/04/01 11:03:22;;;;;;;8.00;7.30;;;;;;;18.60;51.47;98489.39;106750;1254;71532;-71
2023/04/01 11:06:52;;;;;;;11.00;8.80;;;;;;;18.14;52.29;98487.88;106372;1257;71532;-71
2023/04/01 11:09:48;;;;;;;11.40;8.00;;;;;;;18.14;53.12;98484.39;106799;1254;60446;-72
2023/04/01 11:12:35;;;;;;;12.30;9.10;;;;;;;18.37;53.09;98477.00;106628;1254;60499;-72
2023/04/01 11:15:41;;;;;;;13.20;8.50;;;;;;;18.54;52.62;98480.70;106700;1257;74679;-70
2023/04/01 11:18:32;;;;;;;8.00;7.20;;;;;;;18.47;52.67;98477.34;106675;1257;71217;-70
2023/04/01 11:21:24;;;;;;;9.40;8.40;;;;;;;18.25;53.12;98470.71;107072;1256;73565;-69
2023/04/01 11:24:10;;;;;;;11.40;9.60;;;;;;;17.92;53.77;98478.88;106985;1254;61563;-71
2023/04/01 11:27:02;;;;;;;11.10;8.30;;;;;;;17.55;54.00;98475.77;108420;1256;61247;-73
2023/04/01 11:29:53;;;;;;;10.10;8.60;;;;;;;17.30;54.98;98465.52;108848;1254;73563;-70
2023/04/01 11:32:45;;;;;;;;;;;;;;;17.13;55.17;98466.27;107482;1255;71332;-70
2023/04/01 11:35:50;;;;;;;11.90;9.60;;;;;;;16.80;55.65;98463.19;107941;1256;72592;-70
2023/04/01 11:38:54;;;;;;;10.70;9.60;;;;;;;16.43;56.72;98463.14;107980;1258;60407;-72
2023/04/01 11:42:12;;;;;;;11.30;10.10;;;;;;;16.15;57.75;98465.25;107783;1257;60484;-71
2023/04/01 11:45:17;;;;;;;12.30;9.60;;;;;;;15.80;58.70;98468.52;107742;1256;75062;-76
2023/04/01 11:48:05;;;;;;;12.00;9.40;;;;;;;15.49;59.34;98449.55;107871;1258;71230;-77
2023/04/01 11:51:02;;;;;;;11.60;8.90;;;;;;;15.30;59.99;98449.48;108244;1254;72065;-75
2023/04/01 11:53:38;;;;;;;11.60;9.20;;;;;;;15.23;60.33;98451.86;107715;1254;60367;-76
2023/04/01 11:56:42;;;;;;;10.90;8.90;;;;;;;15.13;60.44;98440.65;108783;1252;60366;-76
2023/04/01 11:59:35;;;;;;;12.20;9.10;;;;;;;15.04;60.53;98453.16;108639;1254;72952;-77
2023/04/01 12:02:24;;;;;;;9.70;8.70;;;;;;;14.95;60.73;98438.60;108592;1254;69200;-74
2023/04/01 12:05:11;;;;;;;10.90;9.10;;;;;;;14.85;61.26;98430.04;107192;1255;75770;-77
2023/04/01 12:08:04;;;;;;;12.40;10.10;;;;;;;14.81;61.62;98434.45;107989;1254;60077;-76
2023/04/01 12:10:57;;;;;;;12.60;9.90;;;;;;;14.82;61.65;98432.80;108844;1258;60241;-76
2023/04/01 12:14:21;;;;;;;9.20;8.20;;;;;;;14.81;61.59;98427.42;108416;1252;74418;-76
2023/04/01 12:17:41;;;;;;;10.80;9.50;;;;;;;14.82;61.84;98432.17;107306;1260;70370;-71
2023/04/01 12:20:12;;;;;;;14.20;9.30;;;;;;;14.86;61.79;98430.77;108320;1254;71492;-71
2023/04/01 12:23:32;;;;;;;10.30;9.30;;;;;;;14.81;62.08;98431.45;107355;1258;60464;-70